x

8447387 - Borden Flats Light At Fall River, Ma (bltm3) Weather Station

9:30 - Mon 29th Aug 2016 All times are EDT. -4 hours from GMT.

  • Wind
    11mph, 14mph gusts
  • Ar Temp 76°f
  • Sea Pressure 1018.5mb
  • 8447387 - Borden Flats Light At Fall River, Ma
  • 8447387 - Borden Flats Light At Fall River, Ma

More Historic Weather Station data

Upgrade to MSW Pro to gain access to the past 30 days of data for over 8000 Wavebouys and Weather Stations around the globe.

Join Pro

Comparision Forecast

View Surf forecast
   
Seg 08/29 9:30 11 14 mph 1018.5mb 76f
9:24 13 15 mph 1018.5mb 75f
9:18 11 15 mph 1018.6mb 75f
9:12 10 13 mph 1018.6mb 75f
9:06 9 11 mph 1018.7mb 75f
9:00 11 14 mph 1018.7mb 74f
8:54 14 15 mph 1018.7mb 74f
8:48 14 15 mph 1018.7mb 74f
8:42 14 16 mph 1018.7mb 74f
8:36 14 16 mph 1018.8mb 74f
8:30 15 17 mph 1018.7mb 74f
8:24 16 17 mph 1018.7mb 74f
8:18 15 17 mph 1018.8mb 74f
8:12 14 16 mph 1018.8mb 74f
8:06 14 17 mph 1018.9mb 74f
8:00 14 15 mph 1018.8mb 74f
7:54 15 17 mph 1018.8mb 74f
7:48 16 18 mph 1018.8mb 74f
7:42 16 18 mph 1018.8mb 74f
7:36 15 18 mph 1018.7mb 74f
7:30 15 16 mph 1018.7mb 74f
7:24 15 17 mph 1018.7mb 74f
7:18 15 17 mph 1018.8mb 74f
7:12 16 18 mph 1018.8mb 74f
7:06 15 17 mph 1018.8mb 74f
7:00 15 17 mph 1018.7mb 74f
6:54 14 16 mph 1018.8mb 74f
6:48 14 16 mph 1019mb 73f
6:42 14 15 mph 1019.1mb 74f
6:36 15 17 mph 1019mb 74f
6:30 15 17 mph 1019mb 73f
6:24 15 17 mph 1018.9mb 73f
6:12 15 17 mph 1018.8mb 73f
6:06 15 16 mph 1018.8mb 73f
6:00 14 16 mph 1018.9mb 73f
5:54 14 17 mph 1019mb 73f
5:48 14 16 mph 1019mb 73f
5:42 13 15 mph 1019mb 73f
5:36 15 17 mph 1019mb 73f
5:30 16 18 mph 1019mb 73f
5:24 15 18 mph 1019.1mb 73f
5:18 16 18 mph 1019mb 73f
5:12 16 18 mph 1019mb 73f
5:06 16 20 mph 1019.1mb 73f
5:00 16 18 mph 1019.1mb 73f
4:54 16 18 mph 1019.2mb 73f
4:48 15 18 mph 1019.3mb 73f
4:42 14 17 mph 1019.5mb 73f
4:36 15 17 mph 1019.5mb 73f
4:30 15 18 mph 1019.6mb 73f
4:24 14 17 mph 1019.7mb 73f
4:18 15 17 mph 1019.7mb 73f
4:12 15 16 mph 1019.7mb 73f
4:06 15 17 mph 1019.8mb 73f
4:00 16 18 mph 1019.8mb 73f
3:54 16 18 mph 1019.8mb 73f
3:48 16 17 mph 1020mb 73f
3:42 15 17 mph 1020mb 73f
3:36 13 16 mph 1020.1mb 73f
3:30 13 15 mph 1020.1mb 73f
3:24 13 15 mph 1020.2mb 73f
3:18 13 15 mph 1020.2mb 72f
3:12 13 15 mph 1020.3mb 72f
3:06 13 15 mph 1020.3mb 72f
3:00 14 16 mph 1020.3mb 72f
2:54 15 17 mph 1020.3mb 72f
2:48 14 16 mph 1020.4mb 72f
2:42 11 15 mph 1020.4mb 72f
2:36 9 13 mph 1020.5mb 72f
2:30 9 13 mph 1020.6mb 72f
2:24 10 13 mph 1020.5mb 72f
2:18 11 15 mph 1020.5mb 72f
2:12 11 16 mph 1020.6mb 72f
2:00 10 14 mph 1020.7mb 72f
1:54 8 11 mph 1020.7mb 72f
1:48 6 7 mph 1020.9mb -
1:42 6 8 mph 1021mb -
1:36 5 7 mph 1021mb -
1:30 7 9 mph 1020.9mb 71f
1:24 8 10 mph 1021mb 71f
1:18 8 11 mph 1021.1mb 71f
1:12 8 9 mph 1021.1mb 71f
1:06 7 9 mph 1021.3mb 71f
1:00 8 11 mph 1021.3mb 71f
12:54 8 11 mph 1021.4mb 71f
12:48 8 10 mph 1021.4mb 70f
12:42 8 11 mph 1021.5mb 71f
12:36 8 11 mph 1021.5mb 71f
12:30 8 11 mph 1021.6mb 70f
12:24 8 11 mph 1021.7mb 70f
12:18 9 13 mph 1021.7mb 71f
12:12 8 10 mph 1021.8mb 71f
12:06 7 10 mph 1021.9mb 71f
12:00 8 11 mph 1021.9mb 70f
Dom 08/28 11:54 8 9 mph 1021.8mb 70f
11:48 8 10 mph 1021.8mb 70f
11:42 8 11 mph 1021.8mb 70f
11:36 7 9 mph 1021.8mb 70f
11:30 6 8 mph 1021.9mb 71f
11:24 5 7 mph 1021.9mb 71f
11:18 5 6 mph 1022mb 71f
11:12 6 7 mph 1021.9mb 71f
11:06 6 7 mph 1022mb 71f
11:00 6 7 mph 1022.1mb 71f
10:54 5 7 mph 1022.1mb 71f
10:48 6 8 mph 1022.1mb 71f
10:42 6 8 mph 1022.1mb 71f
10:36 8 10 mph 1022mb 71f
10:30 6 8 mph 1022.1mb 71f
10:24 6 8 mph 1022.1mb 71f
10:18 6 9 mph 1022.1mb 71f
10:12 6 9 mph 1022.1mb 71f
10:06 7 9 mph 1022.2mb 71f
10:00 6 8 mph 1022.2mb 71f
9:54 6 8 mph 1022.1mb 71f
9:48 6 7 mph 1022.2mb 71f
9:42 6 8 mph 1022.2mb 71f
9:36 7 9 mph 1022.2mb 71f
9:30 7 8 mph 1022.1mb 72f
9:24 7 8 mph 1022.1mb 71f
9:18 6 8 mph 1022.1mb 72f
9:12 5 7 mph 1022.1mb 72f
9:06 6 7 mph 1022.1mb 72f
9:00  -  mph 1022.1mb 72f
8:54  -  mph 1022.1mb 72f
8:48 6 7 mph 1022.1mb 72f
8:42 7 8 mph 1022.2mb 72f
8:36 7 9 mph 1022.2mb 72f
8:30 7 9 mph 1022.2mb 72f
8:24 6 7 mph 1022.2mb 72f
8:18  -  mph 1022.3mb 73f
8:12  -  mph 1022.3mb 72f
8:06  -  mph 1022.3mb 73f
8:00 8 11 mph 1022.2mb 73f
7:54 9 13 mph 1022.3mb 73f
7:48 8 9 mph - 73f
7:42 9 10 mph - 73f
7:36 9 10 mph - 73f
7:30 9 13 mph 1022.4mb 74f
7:24 8 13 mph 1022.5mb 74f
7:18  -  mph 1022.4mb 74f
7:12  -  mph 1022.3mb 74f
7:06  -  mph 1022.3mb 74f
7:00 11 14 mph 1022.3mb 74f
6:54 11 14 mph 1022.3mb 75f
6:48 11 15 mph 1022.3mb 75f
6:42 13 15 mph 1022.3mb 75f
6:36 10 15 mph 1022.4mb 75f
6:30 11 15 mph 1022.4mb 76f
6:24 11 15 mph 1022.3mb 76f
6:18  -  mph 1022.3mb 76f
6:12  -  mph 1022.3mb 77f
6:06  -  mph 1022.3mb 76f
6:00  -  mph 1022.4mb 76f
5:54  -  mph 1022.5mb 77f
5:48  -  mph - 77f
5:42  -  mph - 77f
5:36  -  mph - 77f
5:30 11 15 mph 1022.6mb 77f
5:24 14 17 mph 1022.5mb 77f
5:18 14 20 mph 1022.5mb 78f
5:12 14 17 mph 1022.6mb 78f
5:06 15 18 mph 1022.6mb 78f
5:00 14 17 mph 1022.6mb 79f
4:54 15 17 mph 1022.7mb 79f
4:48 16 21 mph 1022.8mb 79f
4:42 15 18 mph 1022.8mb 79f
4:36 15 18 mph 1022.8mb 80f
4:30 14 15 mph 1022.9mb 81f
4:24 10 14 mph 1022.9mb 81f
4:18 10 14 mph 1022.9mb 81f
4:12 11 15 mph 1022.9mb 82f
4:06 11 14 mph 1023mb 80f
4:00 14 15 mph 1022.9mb 80f
3:54 15 16 mph 1023mb 80f
3:48 13 14 mph 1023mb 80f
3:42 14
mph
1023.1mb 80f
3:36 13 14 mph 1023.2mb 81f
3:30 13 14 mph 1023.2mb 81f
3:24 13 14 mph 1023.2mb 81f
3:18 14 15 mph 1023.3mb 81f
3:12 11 14 mph 1023.3mb 81f
3:06 13 14 mph 1023.4mb 80f
3:00 13
mph
1023.4mb 80f
2:54 11
mph
1023.5mb 81f
2:48 10 13 mph 1023.6mb 80f
2:42 11
mph
1023.7mb 80f
2:36 11 13 mph 1023.7mb 80f
2:30 10 11 mph 1023.8mb 80f
2:24 10 11 mph 1023.8mb 80f
2:18 10 11 mph 1023.8mb 80f
2:12 9 10 mph 1023.9mb 80f
2:06 9
mph
1023.9mb 80f
2:00 9
mph
1023.9mb 80f
1:54 8 9 mph 1024mb 80f
1:48 8 9 mph 1024.1mb 80f
1:42 8 9 mph 1024.2mb 80f
1:36 8 9 mph 1024.2mb 80f
1:30 8
mph
1024.2mb 80f
1:24 8 9 mph 1024.3mb 80f
1:18 8 9 mph 1024.4mb 80f
1:12 7 8 mph 1024.4mb 80f
1:06 8
mph
1024.5mb 79f
1:00 8
mph
1024.5mb 79f
12:54 7 8 mph 1024.6mb 79f
12:48 7 8 mph 1024.8mb 79f
12:42 8
mph
1024.8mb 79f
12:36 8 9 mph 1024.8mb 78f
12:30 7 8 mph 1024.9mb 78f
12:24 7 8 mph 1024.9mb 78f
12:18 7
mph
1025mb 78f
12:12 6 7 mph 1025mb 78f
12:06 5 6 mph 1025mb 78f
12:00 3 5 mph 1025.1mb 78f
11:54 3 5 mph 1025.1mb 78f
11:48 3 5 mph 1025.2mb 78f
11:42 6
mph
1025.3mb 77f
11:36 7 8 mph 1025.4mb 77f
11:30 7 8 mph 1025.5mb 77f
11:24 6 7 mph 1025.6mb 77f
11:18 6
mph
1025.6mb 77f
11:12 5 6 mph 1025.6mb 77f
11:06 5
mph
1025.6mb 76f
11:00 3 5 mph 1025.7mb 76f
10:54 3 5 mph 1025.7mb 76f
10:48 3 5 mph 1025.8mb 76f
10:42 5 6 mph 1025.8mb 76f
10:36 6
mph
1025.8mb 76f
10:30 6 7 mph 1025.8mb 75f
10:24 6
mph
1025.9mb 75f
10:18 5 6 mph 1025.9mb 75f
10:12 5 6 mph 1026mb 75f
10:06 6
mph
1026mb 75f
10:00 5 6 mph 1026.1mb 75f
9:54 5
mph
1026mb 74f
9:48 3 5 mph 1026mb 74f
9:42 3 5 mph 1026mb 74f
9:36 3 5 mph 1026mb 74f
9:30 5 6 mph 1026.1mb 74f
9:24 5 6 mph 1026.1mb 74f
9:18 5
mph
1026.1mb 73f
9:12 2 3 mph 1026.1mb 73f
9:06 2 3 mph 1026mb 73f
9:00 3 5 mph 1025.9mb 73f
8:54 3 5 mph 1026mb 73f
8:48 3 5 mph 1026.1mb 73f
8:42 5
mph
1026.1mb 73f
8:36 5
mph
1026.1mb 73f
8:30 2 3 mph 1026.1mb 73f
8:24 2 3 mph 1026.1mb 72f
8:18 3 5 mph 1026.1mb 72f
8:12 2 3 mph 1026mb 72f
8:06 2 3 mph 1026mb 72f
8:00 3
mph
1026.1mb -
7:54 3
mph
1026.1mb -
7:48 2 3 mph 1026.1mb 72f
7:42 1 2 mph 1026.1mb 72f
7:36  -  mph 1026.1mb 73f
7:30  -  1 mph 1026.1mb 72f
7:24  -  1 mph 1026mb 72f
7:18 1 2 mph 1026.1mb 72f
7:12 1 3 mph 1026.1mb 71f
7:06 2 3 mph 1026mb 71f
7:00 2 3 mph 1025.9mb 71f
6:54 2
mph
1025.8mb 71f
6:48 2
mph
1025.8mb 71f
6:42 2 3 mph 1025.6mb 71f
6:36 3 5 mph 1025.6mb 71f
6:30 2
mph
1025.6mb 71f
6:24  -  1 mph 1025.6mb 71f
6:18 1 2 mph 1025.5mb 71f
6:12  -  1 mph 1025.5mb 71f
6:06  -  2 mph 1025.4mb 71f
6:00 2 3 mph 1025.3mb 71f
5:54 3 5 mph 1025.3mb 71f
5:48 3 5 mph 1025.2mb 71f
5:42 5
mph
1025.2mb 71f
5:36 3 5 mph 1025.1mb 71f
5:30 3 5 mph 1025mb 71f
5:24 5 6 mph 1024.9mb 71f
5:18 5 6 mph 1024.8mb 71f
5:12 5 6 mph 1024.7mb 71f
5:06 6 7 mph 1024.7mb 71f
5:00 6 7 mph 1024.7mb 71f
4:54 6
mph
1024.7mb 71f
4:48 6 7 mph 1024.7mb 71f
4:42 6 7 mph 1024.6mb 71f
4:36 6 8 mph 1024.6mb 71f
4:30 6 8 mph 1024.5mb 71f
4:24 7 8 mph 1024.5mb 71f
4:18 7 8 mph 1024.5mb 71f
4:12 7 8 mph 1024.5mb 71f
4:06 7 8 mph 1024.5mb 71f
4:00 6 7 mph 1024.5mb 71f
3:54 6
mph
1024.5mb 71f
3:48 6 8 mph 1024.4mb 71f
3:42 6 8 mph 1024.3mb 71f
3:36 6 7 mph 1024.3mb 71f
3:30 6 7 mph 1024.3mb 71f
3:24 6 7 mph 1024.3mb 71f
3:18 5 7 mph 1024.3mb 71f
3:12 5 6 mph 1024.4mb 71f
3:06 6 7 mph 1024.3mb 71f
3:00 5 6 mph 1024.4mb 72f
2:54 5 7 mph 1024.3mb 72f
2:48 5 6 mph 1024.4mb 72f
2:42 5 6 mph 1024.5mb 72f
2:36 3 6 mph 1024.6mb 72f
2:30 3 6 mph 1024.6mb 72f
2:24 2 5 mph 1024.6mb 72f
2:18 2 5 mph 1024.6mb 72f
2:12 1 2 mph 1024.7mb 72f
2:06 2 3 mph 1024.7mb 72f
2:00 2 3 mph 1024.8mb 72f
1:54 3 5 mph 1024.8mb 72f
1:48 3 6 mph 1024.8mb -
1:42 5 6 mph 1024.9mb -
1:36 5 6 mph 1024.9mb -
1:30 7 8 mph 1024.9mb 72f
1:24 6 8 mph 1024.9mb 73f
1:18 5 7 mph 1024.9mb 73f
1:12 6 7 mph 1024.9mb 73f
1:06 3 5 mph 1024.9mb 73f
1:00 5 6 mph 1024.9mb 73f
12:54 6 8 mph 1024.9mb 73f
12:48 3 6 mph 1024.9mb 73f
12:42 3 6 mph 1024.9mb 73f
12:36 5 7 mph 1024.9mb 73f
12:30 5 6 mph 1024.9mb 73f
12:24 5 7 mph 1024.9mb 73f
12:18 3 5 mph 1024.9mb 73f
12:12 3 6 mph 1024.9mb 73f
12:06 3 5 mph 1024.9mb 73f
12:00 5 6 mph 1024.9mb 73f
Sáb 08/27 11:54 2 3 mph 1024.8mb 73f
11:48 3
mph
1024.8mb 73f
11:42 2 3 mph 1024.8mb 73f
11:36 2 3 mph 1024.7mb 73f
11:30 2 3 mph 1024.7mb 73f
11:24 2 3 mph 1024.7mb 73f
11:18 3 6 mph 1024.6mb 73f
11:12 2 3 mph 1024.6mb 73f
11:06 2 3 mph 1024.6mb 73f
11:00 2 3 mph 1024.7mb 73f
10:54 1 3 mph 1024.7mb 73f
10:48  -  1 mph 1024.6mb 73f
10:42 1 2 mph 1024.7mb 73f
10:36 1 2 mph 1024.6mb 73f
10:30 2 3 mph 1024.6mb 73f
10:24 2 3 mph 1024.6mb 73f
10:18  -  mph 1024.5mb 73f
10:12  -  mph 1024.4mb 73f
10:06  -  mph 1024.4mb 73f
10:00 1 2 mph 1024.4mb 73f
9:54 2
mph
1024.4mb 73f
9:48 3 5 mph 1024.4mb 73f
9:42 3
mph
1024.4mb 74f
9:36 3 5 mph 1024.4mb 73f
9:30  -  mph 1024.4mb 74f
9:24  -  mph 1024.3mb 74f
9:18 5 6 mph 1024.3mb 74f
9:12 3 5 mph 1024.2mb 74f
9:06 3 5 mph 1024.2mb 74f
9:00  -  mph 1024.1mb 74f
8:54  -  mph 1024mb 74f
8:48 5 6 mph 1024mb 74f
8:42 6 8 mph 1023.9mb 74f
8:36 5 7 mph 1023.8mb 74f
8:30 5 8 mph 1023.6mb 75f
8:24 6 7 mph 1023.5mb 75f
8:18 6 8 mph 1023.4mb 75f
8:12 6 8 mph 1023.3mb 75f
8:06 7 10 mph 1023.2mb 75f
8:00 8 10 mph 1023.1mb 75f
7:54 8 11 mph 1023.1mb 75f
7:48 7 9 mph 1023mb -
7:42 8 10 mph 1023mb -
7:36 9 10 mph 1022.9mb -
7:30  -  mph 1022.8mb 76f
7:24  -  mph 1022.8mb 77f
7:18 8 10 mph 1022.8mb 77f
7:12 8 11 mph 1022.7mb 77f
7:06 10 11 mph 1022.7mb 77f
7:00 8 11 mph 1022.7mb 78f
6:54 8 10 mph 1022.5mb 78f
6:48 9 11 mph - -
6:42 9 11 mph - -
6:36 13 14 mph - -
6:30 11 14 mph 1022.3mb 78f
6:24 14 15 mph 1022.3mb 78f
6:18 15 17 mph 1022.2mb 78f
6:12 17 18 mph 1022.1mb 78f
6:06 16 18 mph 1022mb 79f
6:00 9 11 mph 1022.1mb 82f
5:54 8 11 mph 1022mb 82f
5:48  -  mph - 82f
5:42  -  mph - 83f
5:36  -  mph - 82f
5:30 10 13 mph 1021.8mb 82f
5:24 10 13 mph 1021.8mb 83f
5:18 11 15 mph 1021.8mb 83f
5:12 11 15 mph 1021.6mb 83f
5:06 10 14 mph 1021.6mb 83f
5:00 11 14 mph 1021.6mb 83f
4:54 9 13 mph 1021.6mb 83f
4:48 9 11 mph 1021.6mb 83f
4:42 13 16 mph 1021.5mb 84f
4:36 10 14 mph 1021.5mb 84f
4:30 5 8 mph 1021.5mb 84f
4:24 10 14 mph 1021.5mb 84f
4:18 10 16 mph 1021.4mb 82f
4:12 13 17 mph 1021.4mb 82f
4:06 14 17 mph 1021.3mb 83f
4:00 15 18 mph 1021.3mb 82f
3:54 15 18 mph 1021.3mb 82f
3:48 16 17 mph 1021.2mb 82f
3:42 16 17 mph 1021.2mb 82f
3:36 15 18 mph 1021.2mb 82f
3:30 13 15 mph 1021.2mb 82f
3:24 14 15 mph 1021.2mb 82f
3:18 14 16 mph 1021.2mb 82f
3:12 9 13 mph 1021.2mb 83f
3:06 13 15 mph 1021.2mb 82f
3:00 16 18 mph 1021.2mb 82f
2:54 16 17 mph 1021.1mb 82f
2:48 15 16 mph 1021.2mb 83f
2:42 14 16 mph 1021.2mb 83f
2:36 7 8 mph 1021.3mb 84f
2:30 2 6 mph 1021.3mb 87f
2:24 2 5 mph 1021.3mb 91f
2:18 3 6 mph 1021.4mb 90f
2:12 7 9 mph 1021.5mb 90f
2:06 2 3 mph 1021.5mb 90f
2:00  -  1 mph 1021.5mb 89f
1:54 2 5 mph 1021.6mb 88f
1:48  -  3 mph 1021.6mb 88f
1:42 1 3 mph 1021.7mb 91f
1:36 5 7 mph 1021.7mb 89f
1:30 2 5 mph 1021.7mb 87f
1:24 2 5 mph 1021.7mb 89f
1:18 5 7 mph 1021.7mb 90f
1:12 5 7 mph 1021.7mb 89f
1:06 8 9 mph 1021.8mb 89f
1:00 7 9 mph 1021.7mb 89f
12:54 7 11 mph 1021.8mb 88f
12:48 9 11 mph 1021.7mb 89f
12:42 2 6 mph 1021.7mb 88f
12:36 6 8 mph 1021.7mb 87f
12:30 5 6 mph 1021.7mb 87f
12:24  -  2 mph 1021.8mb 85f
12:18 5 7 mph 1022mb 87f
12:12 5 7 mph 1022mb 87f
12:06 6 7 mph 1022mb 86f
12:00 6 11 mph 1022.1mb 86f
11:54 5 6 mph 1022.2mb 86f
11:48 3 6 mph 1022.2mb 86f
11:42 6 7 mph 1022.2mb 85f
11:36 6 7 mph 1022.2mb 85f
11:30 6 7 mph 1022.2mb 85f
11:24 6
mph
1022.2mb 85f
11:18 7 8 mph 1022.2mb 84f
11:12 8 10 mph 1022.1mb 84f
11:06 6 8 mph 1022.2mb 84f
11:00 7 8 mph 1022.2mb 83f
10:54 7 8 mph 1022.2mb 83f
10:48 8 9 mph 1022.3mb 83f
10:42 7 9 mph 1022.3mb 83f
10:36 7 8 mph 1022.3mb 82f
10:30 7 8 mph 1022.3mb 82f
10:24 6 7 mph 1022.3mb 82f
10:18 6 7 mph 1022.3mb 81f
10:12 6 7 mph 1022.4mb 81f
10:06 6 8 mph 1022.4mb 80f
10:00 8 9 mph 1022.4mb 80f
9:54 9
mph
1022.4mb 79f
9:48 9 10 mph 1022.2mb 79f
9:42 7 9 mph 1022.2mb 79f
9:30 6 7 mph 1022.2mb 78f
9:24 6 7 mph 1022.2mb 78f
9:18 6 7 mph 1022.1mb -
9:12 6
mph
1022.1mb -
9:06 6
mph
1022.1mb -
9:00 3 6 mph 1022mb 76f
8:54 5 6 mph 1021.9mb 76f
8:48 5
mph
1021.8mb 76f
8:42 3 5 mph 1021.8mb 75f
8:36 3 5 mph 1021.6mb 75f
8:30 2 3 mph 1021.6mb 74f
8:24 1 2 mph 1021.6mb 73f
8:18  -  1 mph 1021.5mb 73f
8:12  -  1 mph 1021.5mb 73f
8:06  -  1 mph 1021.6mb 73f
8:00 2 3 mph 1021.6mb 74f
7:54 5 6 mph 1021.5mb 74f
7:48 5 6 mph 1021.5mb 73f
7:42 6 7 mph 1021.5mb 73f
7:36 5 6 mph 1021.5mb 73f
7:30 6 7 mph 1021.4mb 73f
7:24 5 6 mph 1021.3mb 72f
7:18 3 5 mph 1021.2mb 72f
7:12 2 6 mph 1021.2mb 72f
7:06 2 3 mph 1021.1mb 72f
7:00 2 3 mph 1021mb 71f
6:54 1 2 mph 1021mb 71f
6:48 1 3 mph 1020.9mb 71f
6:42 2 5 mph 1020.8mb 71f
6:36 2 5 mph 1020.7mb 71f
6:30 3 6 mph 1020.6mb 71f
6:24 5 6 mph 1020.5mb 71f
6:18 5 6 mph 1020.3mb 71f
6:12 3 5 mph 1020.2mb 71f
6:06 5 6 mph 1020.1mb 71f
6:00 5
mph
1020mb 71f
5:54 5
mph
1019.9mb 71f
5:48 3 5 mph 1019.9mb 71f
5:42 3 5 mph 1019.8mb 71f
5:36 3 5 mph 1019.7mb 72f
5:30 3 5 mph 1019.6mb 72f
5:24 5
mph
1019.6mb 72f
5:18 5
mph
1019.5mb 72f
5:12 5 6 mph 1019.5mb 72f
5:06 3 6 mph 1019.4mb 72f
5:00 3 5 mph 1019.4mb 72f
4:54 5 6 mph 1019.3mb 72f
4:48 2 3 mph 1019.3mb 72f
4:42 1 2 mph 1019.3mb 73f
4:36 1 2 mph 1019.2mb 73f
4:30 2 3 mph 1019.2mb 73f
4:24 2 3 mph 1019.2mb 73f
4:18 2 3 mph 1019.1mb 73f
4:12 3 5 mph 1019.1mb 73f
4:06 3
mph
1019mb 73f
4:00 3 6 mph 1018.9mb 73f
3:54 5 6 mph 1019mb 73f
3:48 6 7 mph 1019mb 73f
3:42 5 6 mph 1019mb 74f
3:36 5 7 mph 1019mb 74f
3:30 6 7 mph 1019mb 74f
3:24 2 5 mph 1019.1mb 74f
3:18 2 3 mph 1019mb 74f
3:12 2 3 mph 1019mb 74f
3:06 5 6 mph 1018.9mb 74f
3:00 5 6 mph 1018.9mb 74f
2:54 3 6 mph 1018.9mb 74f
2:48 2 3 mph 1018.9mb 74f
2:42  -  mph 1018.9mb 75f
2:36  -  1 mph 1018.9mb 75f
2:30 1 2 mph 1018.8mb 75f
2:24 2 3 mph 1018.7mb 75f
2:18 1 3 mph 1018.6mb 75f
2:12 2
mph
1018.6mb 75f
2:06 3 5 mph 1018.5mb 75f
2:00 3 6 mph 1018.6mb 75f
1:54 3 5 mph 1018.4mb 75f
1:48 5 6 mph 1018.4mb 75f
1:42 3 6 mph 1018.3mb 76f
1:36 5 6 mph 1018.3mb 76f
1:30 5
mph
1018.2mb 76f
1:24 5 6 mph 1018.1mb 76f
1:18 5 7 mph 1018.1mb 76f
1:12 3 5 mph 1018.1mb 76f
1:06 5 6 mph 1018mb 76f
1:00 5 7 mph 1017.9mb 76f
12:54 2 3 mph 1017.8mb 76f
12:48 3 6 mph 1017.7mb 76f
12:42 2 5 mph 1017.7mb 76f
12:36 2 5 mph 1017.7mb 77f
12:30 2 3 mph 1017.6mb 77f
12:24 2 3 mph 1017.5mb 77f
12:18 1 2 mph 1017.4mb 77f
12:12 2 5 mph 1017.3mb 77f
12:06 5 7 mph 1017.2mb 77f
12:00 7 9 mph 1017.2mb 77f
Sex 08/26 11:54 8 9 mph 1017.1mb 77f
11:48 8 9 mph 1017.1mb 77f
11:42 9 10 mph 1017.1mb 78f
11:36 8 9 mph 1017.1mb 78f
11:30 8 10 mph 1017mb 78f
11:24 8 10 mph 1016.9mb 77f
11:18 8 10 mph 1016.8mb 76f
11:12 8 11 mph 1016.8mb 76f
11:06 3 5 mph 1016.7mb 77f
11:00 1 3 mph 1016.7mb 77f
10:54  -  mph 1016.7mb 77f
10:48  -  1 mph 1016.6mb 78f
10:42 2
mph
1016.6mb 78f
10:36 2 3 mph 1016.6mb 78f
10:30 2 3 mph 1016.5mb 78f
10:24 3
mph
1016.5mb 78f
10:18  -  mph 1016.5mb 78f
10:12  -  mph 1016.4mb 78f
10:06  -  mph 1016.4mb 78f
10:00  -  mph 1016.3mb 78f
9:54  -  mph 1016.3mb 78f
9:48 2
mph
1016.2mb 78f
9:42 2
mph
1016.2mb 78f
9:36 2 3 mph 1016.2mb 78f
9:30 5
mph
1016.1mb 79f
9:24 2 3 mph 1016mb 79f
9:18  -  mph - 79f
9:12  -  mph - 79f
9:06  -  mph - 79f
9:00 5
mph
- 79f
8:54 3
mph
- 80f
8:48 2 3 mph 1015.7mb 79f
8:42 1 3 mph 1015.7mb 79f
8:36 1 2 mph 1015.6mb 79f
8:30  -  1 mph - 79f
8:24  -  1 mph - 80f
8:18  -  mph 1015.4mb 80f
8:12  -  mph 1015.4mb 80f
8:06  -  mph 1015.3mb 80f
8:00 7
mph
1015.2mb 80f
7:54 7 8 mph 1015.2mb 80f
7:48  -  mph 1015.1mb -
7:42  -  mph 1015mb -
7:36  -  mph 1015mb -
7:30 9 10 mph 1014.9mb 80f
7:24 10
mph
1014.9mb 80f
7:18 10 11 mph 1014.9mb 81f
7:12 10
mph
1014.8mb 81f
7:06 10 11 mph 1014.7mb 81f
7:00 10 11 mph 1014.7mb 82f
6:54 10
mph
1014.7mb 82f
6:48 10
mph
1014.7mb 82f
6:42 9 10 mph 1014.7mb 82f
6:36 10 11 mph 1014.6mb 81f
6:30 10 11 mph - 82f
6:24 10 11 mph - 81f
6:18  -  mph 1014.5mb 81f
6:12  -  mph 1014.5mb 82f
6:06  -  mph 1014.4mb 82f
6:00  -  mph 1014.4mb 81f
5:54  -  mph 1014.3mb 81f
5:48 14 15 mph 1014.3mb 82f
5:42 14 15 mph 1014.2mb 82f
5:36 13 14 mph 1014.1mb 82f
5:30 13 14 mph 1014.1mb 82f
5:24 14
mph
1014.2mb 82f
5:18 13 14 mph 1014.2mb 82f
5:12 10 11 mph 1014.1mb 82f
5:06 13 14 mph 1014.1mb 81f
5:00 14
mph
1014.1mb 81f
4:54 13 14 mph 1014.2mb 81f
4:48 13 14 mph 1014.2mb 81f
4:42 14 16 mph 1014.1mb 81f
4:36 13 14 mph 1014.1mb 81f
4:30 13 14 mph 1014mb 82f
4:24 13 14 mph 1014mb 83f
4:18 13 14 mph 1013.9mb 83f
4:12 14 16 mph 1013.8mb 83f
4:06 14 16 mph 1013.9mb 83f
4:00 13 14 mph 1013.8mb 83f
3:54 14
mph
1013.8mb 83f
3:48 14 15 mph 1013.8mb 83f
3:42 14 16 mph 1013.8mb 82f
3:36 14 15 mph 1013.8mb 82f
3:30 14 15 mph 1013.7mb 82f
3:24 14 15 mph 1013.7mb 83f
3:18 14 15 mph 1013.7mb 82f
3:12 14
mph
1013.7mb 82f
3:06 14 15 mph 1013.8mb 83f
3:00 13 14 mph 1013.7mb 82f
2:54 13 14 mph 1013.7mb 82f
2:48 11 13 mph 1013.7mb 81f
2:42 13 14 mph 1013.7mb 80f
2:36 11 13 mph 1013.7mb 80f
2:30 11 13 mph 1013.7mb 80f
2:24 13
mph
1013.7mb 80f
2:18 11 13 mph 1013.8mb 80f
2:12 11 13 mph 1013.9mb 80f
2:06 13
mph
1013.9mb 81f
2:00 13 14 mph 1013.9mb 81f
1:54 13 14 mph 1013.8mb 81f
1:48 11 13 mph 1013.9mb 82f
1:42 10 13 mph 1014mb 82f
1:36 11 14 mph 1014.1mb 81f
1:30 10 11 mph 1014.2mb 81f
1:24 10 11 mph 1014.2mb 81f
1:18 10 13 mph 1014.2mb 80f
1:12 11 13 mph 1014.2mb 81f
1:06 13 15 mph 1014.3mb 81f
1:00 13 16 mph 1014.3mb 80f
12:54 11 13 mph 1014.4mb 80f
12:48 13 14 mph 1014.4mb 80f
12:42 14 15 mph 1014.4mb 80f
12:36 13 14 mph 1014.4mb 79f
12:30 13 14 mph 1014.4mb 79f
12:24 13 14 mph 1014.6mb 79f
12:18 10 11 mph 1014.7mb 79f
12:12 10 11 mph 1014.7mb 79f
12:06 13 14 mph 1014.8mb 79f
12:00 11 13 mph 1014.8mb 79f
11:54 11 13 mph 1014.9mb 79f
11:48 11 13 mph 1014.9mb 79f
11:42 13 14 mph 1014.8mb 79f
11:36 11 14 mph 1014.8mb 78f
11:30 11 14 mph 1014.8mb 78f
11:24 14 15 mph 1014.9mb 78f
11:18 15 16 mph 1015mb 78f
11:12 14 15 mph 1014.9mb 78f
11:06 13 15 mph 1015mb 78f
11:00 15 17 mph 1015mb 78f
10:54 14 17 mph 1014.9mb 78f
10:48 15 18 mph 1014.9mb 78f
10:42 15 17 mph 1015mb 78f
10:36 17 20 mph 1015.1mb 78f
10:30 17 20 mph 1014.9mb 78f
10:24 16 18 mph 1014.8mb 78f
10:18 17 20 mph 1014.8mb 78f
10:12 17 21 mph 1014.9mb 77f
10:06 17 21 mph 1014.9mb 78f
10:00 17 20 mph 1015mb 77f
9:54 16 20 mph 1015.1mb 77f
9:48 17 20 mph 1015.1mb 77f
9:42 17 21 mph 1015.2mb 77f
9:36 16 20 mph 1015.3mb 77f
9:30 17 20 mph 1015.4mb 77f
9:24 15 18 mph 1015.4mb 77f
9:18 11 17 mph 1015.4mb 77f
9:12 14 16 mph 1015.3mb 77f
9:06 13 15 mph 1015.4mb 77f
9:00 15 18 mph 1015.4mb 76f
8:54 14 16 mph 1015.3mb 76f
8:48 14 16 mph 1015.4mb 76f
8:42 14 16 mph 1015.3mb 76f
8:36 16 18 mph 1015.3mb 76f
8:30 17 21 mph 1015.3mb 76f
8:24 16 18 mph 1015.4mb 76f
8:18 15 16 mph 1015.4mb 76f
8:12 14 16 mph 1015.5mb 76f
8:06 15 17 mph 1015.4mb 75f
8:00 14 16 mph 1015.5mb 75f
7:54 14 17 mph 1015.4mb 75f
7:48 16 17 mph 1015.4mb 75f
7:42 14 16 mph 1015.5mb 75f
7:36 14 15 mph 1015.5mb 75f
7:30 15 17 mph 1015.5mb 75f
7:24 15 17 mph 1015.6mb 75f
7:18 14 15 mph 1015.6mb 75f
7:12 13 16 mph 1015.5mb 75f
7:06 13 16 mph 1015.6mb 75f
7:00 14 16 mph 1015.6mb 75f
6:54 13 16 mph 1015.6mb 75f
6:48 14 16 mph 1015.6mb 75f
6:42 13 15 mph 1015.6mb 75f
6:36 14 16 mph 1015.6mb 75f
6:30 13 16 mph 1015.7mb 75f
6:24 14 16 mph 1015.6mb 75f
6:18 11 15 mph 1015.6mb 75f
6:12 10 13 mph 1015.6mb 75f
6:06 10 14 mph 1015.5mb 75f
6:00 11 13 mph 1015.5mb 75f
5:54 11 14 mph 1015.4mb 75f
5:48 13 14 mph 1015.3mb 75f
5:42 10 13 mph 1015.2mb 75f
5:36 11 15 mph 1015.2mb 75f
5:30 13 15 mph 1015.2mb 75f
5:24 15 16 mph 1015.2mb 75f
5:18 15 18 mph 1015.2mb 75f
5:12 16 18 mph 1015.2mb 75f
5:06 15 18 mph 1015.2mb 75f
5:00 13 15 mph 1015.2mb 75f
4:54 14 17 mph 1015.2mb 75f
4:48 15 17 mph 1015.2mb 75f
4:42 14 17 mph 1015.1mb 75f
4:36 14 16 mph 1015mb 75f
4:30 15 17 mph 1015mb 75f
4:24 16 18 mph 1015mb 75f
4:18 15 18 mph 1015.1mb 75f
4:12 16 18 mph 1015.2mb 75f
4:06 16 21 mph 1015.1mb 75f
4:00 17 21 mph 1015.1mb 75f
3:54 20 22 mph 1015.2mb 75f
3:48 18 21 mph 1015.1mb 76f
3:42 17 21 mph 1015.2mb 75f
3:36 16 20 mph 1015.2mb 75f
3:30 14 18 mph 1015.2mb 76f
3:24 16 20 mph 1015.2mb 76f
3:18 15 18 mph 1015.3mb 76f
3:12 16 22 mph 1015.2mb 76f
3:06 16 21 mph 1015.2mb 76f
3:00 17 22 mph 1015.2mb 76f
2:54 17 21 mph 1015.2mb 76f
2:48 16 20 mph 1015.3mb -
2:42 17 23 mph 1015.3mb -
2:36 17 22 mph 1015.3mb -
2:30 18 24 mph 1015.4mb 76f
2:18 16 21 mph 1015.5mb 76f
2:12 17 22 mph 1015.4mb 76f
2:06 15 20 mph 1015.5mb 76f
2:00 16 22 mph 1015.5mb 76f
1:54 16 21 mph 1015.5mb 76f
1:48 16 21 mph 1015.5mb -
1:42 16 21 mph 1015.6mb -
1:36 15 22 mph 1015.6mb -
1:30 15 23 mph 1015.6mb 76f
1:24 15 21 mph 1015.6mb 76f
1:18 13 16 mph 1015.8mb 76f
1:12 11 15 mph 1015.8mb 76f
1:06 14 17 mph 1015.8mb 76f
1:00 14 18 mph 1015.8mb 76f
12:54 14 20 mph 1015.9mb 76f
12:48 15 18 mph 1015.8mb 76f
12:42 16 21 mph 1015.8mb 76f
12:36 15 20 mph 1015.8mb 76f
12:30 16 22 mph 1015.9mb 76f
12:24 20 24 mph 1015.8mb 76f
12:18 17 22 mph 1015.9mb 76f
12:12 18 23 mph 1015.8mb 76f
12:06 17 22 mph 1015.9mb 76f
12:00 20 24 mph 1015.9mb 76f
Qui 08/25 11:54 16 23 mph 1016mb 76f
11:48 15 20 mph 1016.1mb 76f
11:42 14 17 mph 1016.1mb 76f
11:36 14 16 mph 1016.1mb 75f
11:30 14 21 mph 1016.1mb 75f
11:24 13 16 mph 1016.3mb 75f
11:18 14 17 mph 1016.3mb 75f
11:12 13 17 mph 1016.3mb 75f
11:06 10 14 mph 1016.5mb 75f
11:00 13 16 mph 1016.5mb 75f
10:54 13 17 mph 1016.5mb 75f
10:48 13 16 mph 1016.6mb 75f
10:42 13 17 mph 1016.6mb 75f
10:36 14 18 mph 1016.6mb 75f
10:30 14 16 mph 1016.7mb 75f
10:24 13 16 mph 1016.8mb 75f
10:18  -  mph 1016.8mb 75f
10:12  -  mph 1016.8mb 75f
10:06  -  mph 1016.9mb 75f
10:00  -  mph 1016.9mb 75f
9:54  -  mph 1016.8mb 75f
9:48  -  mph 1016.8mb 75f
9:42  -  mph 1016.8mb 75f
9:36  -  mph 1016.9mb 75f
9:30 14 18 mph 1016.9mb 75f
9:24 15 17 mph 1016.9mb 75f
9:18  -  mph 1016.9mb 75f
9:12  -  mph 1017mb 75f
9:06  -  mph 1017mb 75f
9:00 15 18 mph 1017.1mb 75f
8:54 16 21 mph 1017.1mb 75f
8:48  -  mph 1017.2mb 75f
8:42  -  mph 1017.2mb 75f
8:36  -  mph 1017.2mb 75f
8:30 17 20 mph 1017.2mb 75f
8:24 20 22 mph 1017.1mb 76f
8:18  -  mph 1017mb 76f
8:12  -  mph 1017mb 76f
8:06  -  mph 1017mb 76f
8:00  -  mph 1016.9mb 76f
7:54  -  mph 1016.8mb 76f
7:48 16 20 mph 1016.7mb -
7:42 17 22 mph 1016.8mb -
7:36 20 22 mph 1016.7mb -
7:30 20 22 mph 1016.7mb 76f
7:24 21 23 mph 1016.7mb 76f
7:18  -  mph 1016.8mb 76f
7:12  -  mph 1016.8mb 76f
7:06  -  mph 1016.8mb 76f
7:00  -  mph 1016.7mb 76f
6:54  -  mph 1016.7mb 76f
6:48  -  mph 1016.7mb 76f
6:42  -  mph 1016.6mb 77f
6:36  -  mph 1016.5mb 77f
6:30 21 25 mph 1016.5mb 77f
6:24 22 26 mph 1016.4mb 77f
6:18  -  mph 1016.4mb 77f
6:12  -  mph 1016.5mb 77f
6:06  -  mph 1016.6mb 77f
6:00 21 24 mph 1016.7mb 77f
5:54 22 29 mph 1016.6mb 77f
5:48 23 28 mph 1016.7mb 77f
5:42 23 25 mph 1016.7mb 77f
5:36 23 26 mph 1016.7mb 77f
5:30 23 28 mph 1016.8mb 77f
5:24 23 28 mph 1016.8mb 77f
5:18 18 24 mph 1016.8mb 77f
5:12 17 23 mph 1016.8mb 77f
5:06 20 23 mph 1016.8mb 77f
5:00 22 28 mph 1016.7mb 77f
4:54 23 25 mph 1016.7mb 77f
4:48 22 26 mph 1016.8mb 77f
4:42 23 28 mph 1016.8mb 77f
4:36 23 26 mph 1016.8mb 77f
4:30 22 26 mph 1016.8mb 77f
4:24 21 26 mph 1016.9mb 77f
4:18 23 29 mph 1016.9mb 77f
4:12 22 28 mph 1017.1mb 77f
4:06 20 26 mph 1017.2mb 77f
4:00 22 26 mph 1017.2mb 77f
3:54 21 24 mph 1017.2mb 78f
3:48 23 30 mph 1017.2mb 77f
3:42 24 29 mph 1017.3mb 77f
3:36 23 28 mph 1017.3mb 77f
3:30 25 30 mph 1017.3mb 77f
3:24 24 30 mph 1017.4mb 78f
3:18 22 26 mph 1017.4mb 78f
3:12 20 26 mph 1017.6mb 78f
3:06 25 29 mph 1017.5mb 77f
3:00 22 28 mph 1017.6mb 77f
2:54 22 29 mph 1017.6mb 77f
2:48 24 29 mph 1017.7mb 77f
2:42 20 26 mph 1017.9mb 78f
2:36 21 28 mph 1017.9mb 78f
2:30 21 28 mph 1018.1mb 78f
2:24 21 26 mph 1018.1mb 78f